Time;durP1;ratioP1;P1;durP2;ratioP2;P2;SDS_P1;SDS_P2;PMS_P1;PMS_P2;Temp;Humidity;BMP_temperature;BMP_pressure;BME280_temperature;BME280_humidity;BME280_pressure;Samples;Min_cycle;Max_cycle;Signal;HPM_P1;HPM_P2
2023/07/06 00:01:00;;;;;;;1.75;1.20;;;15.20;78.40;;;;;;5029742;28;20546;-86
2023/07/06 00:03:26;;;;;;;1.70;0.88;;;15.20;78.50;;;;;;5040128;28;20425;-87
2023/07/06 00:05:52;;;;;;;2.05;1.15;;;15.20;78.50;;;;;;5009279;28;20056;-86
2023/07/06 00:08:17;;;;;;;1.13;0.93;;;15.20;78.60;;;;;;5025094;28;20091;-86
2023/07/06 00:10:45;;;;;;;0.80;0.75;;;15.20;78.60;;;;;;5028646;28;20028;-86
2023/07/06 00:13:11;;;;;;;1.55;1.00;;;15.20;78.70;;;;;;5032093;28;20040;-91
2023/07/06 00:15:37;;;;;;;2.03;1.15;;;15.20;78.70;;;;;;5027140;28;20032;-91
2023/07/06 00:18:04;;;;;;;2.60;1.60;;;15.20;78.90;;;;;;5031417;28;20029;-86
2023/07/06 00:20:37;;;;;;;1.00;0.80;;;15.20;79.00;;;;;;5038098;28;20407;-86
2023/07/06 00:23:08;;;;;;;1.45;1.00;;;15.20;78.90;;;;;;5009459;28;20034;-87
2023/07/06 00:25:34;;;;;;;0.75;0.60;;;15.10;78.80;;;;;;5019591;28;20033;-87
2023/07/06 00:28:02;;;;;;;1.67;0.93;;;15.20;78.90;;;;;;5040747;28;20018;-93
2023/07/06 00:30:53;;;;;;;1.20;1.10;;;15.20;79.00;;;;;;5031010;28;20028;-91
2023/07/06 00:33:20;;;;;;;1.90;0.80;;;15.20;79.00;;;;;;5015753;28;20036;-86
2023/07/06 00:35:46;;;;;;;1.63;0.90;;;15.20;79.10;;;;;;5028011;28;20183;-86
2023/07/06 00:38:17;;;;;;;1.60;1.15;;;15.20;79.10;;;;;;5011431;28;20017;-85
2023/07/06 00:41:00;;;;;;;1.38;0.90;;;15.20;79.10;;;;;;5027854;28;20091;-86
2023/07/06 00:43:45;;;;;;;1.77;1.27;;;15.30;79.20;;;;;;5019992;28;20038;-86
2023/07/06 00:46:12;;;;;;;0.88;0.75;;;15.20;79.30;;;;;;5028843;28;20029;-87
2023/07/06 00:48:44;;;;;;;1.35;1.25;;;15.20;79.30;;;;;;5014661;28;20025;-86
2023/07/06 00:51:16;;;;;;;2.97;1.10;;;15.30;79.40;;;;;;5042168;28;20056;-87
2023/07/06 00:53:43;;;;;;;;;;;15.30;80.00;;;;;;5042024;28;20029;-92
2023/07/06 00:56:16;;;;;;;2.28;1.15;;;15.30;79.50;;;;;;5027864;28;20299;-87
2023/07/06 00:58:47;;;;;;;1.38;1.25;;;15.30;79.70;;;;;;5044509;28;20075;-84
2023/07/06 01:01:16;;;;;;;2.03;1.13;;;15.30;79.70;;;;;;5021919;28;20029;-85
2023/07/06 01:03:47;;;;;;;2.75;1.35;;;15.30;79.80;;;;;;5036561;28;20021;-86
2023/07/06 01:06:19;;;;;;;2.28;1.10;;;15.30;79.80;;;;;;5025832;28;20040;-85
2023/07/06 01:08:48;;;;;;;1.60;1.23;;;15.30;79.90;;;;;;5026541;28;20849;-86
2023/07/06 01:11:14;;;;;;;2.40;1.15;;;15.30;79.90;;;;;;5039444;28;20388;-89
2023/07/06 01:13:51;;;;;;;2.03;0.90;;;15.30;79.90;;;;;;5040329;28;20026;-85
2023/07/06 01:16:39;;;;;;;2.50;1.00;;;15.30;79.90;;;;;;5046465;28;20064;-91
2023/07/06 01:19:23;;;;;;;1.58;1.27;;;15.40;79.90;;;;;;5047026;28;20033;-87
2023/07/06 01:22:29;;;;;;;4.88;0.80;;;15.30;79.80;;;;;;5032220;28;20029;-85
2023/07/06 01:25:13;;;;;;;0.95;0.68;;;15.30;79.70;;;;;;5043112;28;20059;-91
2023/07/06 01:28:10;;;;;;;1.85;1.00;;;15.20;79.70;;;;;;5048850;28;20029;-85
2023/07/06 01:30:57;;;;;;;1.15;1.00;;;15.20;79.90;;;;;;5032124;28;20025;-91
2023/07/06 01:33:31;;;;;;;1.10;1.00;;;15.20;79.80;;;;;;5047511;28;20022;-91
2023/07/06 01:36:19;;;;;;;2.55;0.98;;;15.10;79.80;;;;;;5051770;28;20026;-91
2023/07/06 01:38:48;;;;;;;0.70;0.60;;;15.10;79.80;;;;;;5034386;28;20124;-91
2023/07/06 01:41:24;;;;;;;2.15;1.30;;;15.00;79.80;;;;;;5026095;28;20084;-91
2023/07/06 01:43:49;;;;;;;1.13;0.80;;;15.00;79.90;;;;;;5020616;28;20037;-91
2023/07/06 01:46:16;;;;;;;1.23;0.90;;;15.00;79.90;;;;;;5031819;28;20164;-91
2023/07/06 01:48:43;;;;;;;2.35;1.02;;;14.90;79.80;;;;;;5028748;28;20029;-91
2023/07/06 01:51:18;;;;;;;1.52;1.08;;;15.00;79.90;;;;;;5012153;28;20021;-92
2023/07/06 01:54:08;;;;;;;1.08;0.90;;;14.90;79.80;;;;;;5030421;28;20104;-91
2023/07/06 01:56:46;;;;;;;1.85;1.10;;;14.90;80.30;;;;;;5023680;28;20488;-90
2023/07/06 01:59:17;;;;;;;0.90;0.77;;;14.90;79.90;;;;;;5045609;28;20168;-92
2023/07/06 02:01:46;;;;;;;3.53;1.23;;;14.80;79.90;;;;;;5040854;28;20025;-91
2023/07/06 02:04:13;;;;;;;1.92;0.90;;;14.80;79.90;;;;;;5035395;28;20021;-91
2023/07/06 02:06:39;;;;;;;1.90;1.45;;;14.80;79.90;;;;;;5009352;28;20040;-90
2023/07/06 02:09:06;;;;;;;0.93;0.88;;;14.80;80.00;;;;;;5033899;28;20431;-91
2023/07/06 02:11:34;;;;;;;1.20;0.82;;;14.70;79.80;;;;;;5034728;28;20026;-91
2023/07/06 02:13:59;;;;;;;1.45;1.00;;;14.80;80.00;;;;;;5032747;28;20032;-86
2023/07/06 02:16:26;;;;;;;1.70;1.08;;;14.80;80.00;;;;;;5007219;28;20037;-90
2023/07/06 02:18:53;;;;;;;1.17;0.90;;;14.80;80.00;;;;;;5014663;28;20115;-91
2023/07/06 02:21:19;;;;;;;1.55;1.05;;;14.80;79.90;;;;;;5033701;28;20477;-91
2023/07/06 02:23:45;;;;;;;2.60;1.02;;;14.80;79.90;;;;;;5032053;28;20029;-92
2023/07/06 02:26:11;;;;;;;2.33;1.25;;;14.80;79.90;;;;;;5042203;28;20042;-90
2023/07/06 02:28:36;;;;;;;1.65;1.25;;;14.80;79.90;;;;;;5023767;28;20487;-91
2023/07/06 02:31:04;;;;;;;2.10;1.10;;;14.80;80.00;;;;;;5013358;28;20069;-91
2023/07/06 02:33:33;;;;;;;2.08;1.48;;;14.80;80.00;;;;;;5017040;28;20060;-92
2023/07/06 02:35:59;;;;;;;1.10;1.00;;;14.90;80.10;;;;;;5024046;28;20046;-91
2023/07/06 02:38:29;;;;;;;1.95;1.33;;;14.90;80.10;;;;;;5031406;28;20087;-91
2023/07/06 02:40:55;;;;;;;2.95;1.10;;;14.90;80.20;;;;;;5017128;28;20400;-91
2023/07/06 02:43:21;;;;;;;2.92;1.38;;;14.90;80.20;;;;;;5026613;28;20034;-91
2023/07/06 02:45:48;;;;;;;1.35;1.17;;;15.00;80.30;;;;;;5048756;28;20017;-91
2023/07/06 02:48:14;;;;;;;2.45;1.55;;;15.00;80.40;;;;;;5029369;28;20089;-91
2023/07/06 02:50:40;;;;;;;1.88;1.38;;;15.00;80.50;;;;;;5032528;28;20029;-91
2023/07/06 02:53:06;;;;;;;2.05;1.20;;;15.10;80.50;;;;;;5026180;28;20040;-86
2023/07/06 02:55:32;;;;;;;1.17;0.95;;;15.10;80.50;;;;;;5011530;28;20365;-85
2023/07/06 02:57:58;;;;;;;1.83;1.13;;;15.10;80.60;;;;;;5029364;28;20033;-85
2023/07/06 03:00:25;;;;;;;1.52;0.95;;;15.10;80.60;;;;;;5029288;28;20025;-85
2023/07/06 03:02:51;;;;;;;1.23;1.13;;;15.10;80.70;;;;;;5028763;28;20068;-86
2023/07/06 03:05:22;;;;;;;2.58;1.40;;;15.10;80.80;;;;;;5011561;28;20168;-86
2023/07/06 03:07:51;;;;;;;1.65;1.05;;;15.10;80.90;;;;;;5042255;28;20091;-85
2023/07/06 03:10:19;;;;;;;1.92;1.10;;;15.20;80.90;;;;;;5040761;28;20153;-85
2023/07/06 03:12:45;;;;;;;2.58;1.42;;;15.20;80.90;;;;;;5028378;28;20029;-91
2023/07/06 03:15:13;;;;;;;1.45;1.00;;;15.20;81.00;;;;;;5027582;28;20034;-91
2023/07/06 03:17:39;;;;;;;1.80;1.40;;;15.20;81.20;;;;;;5041176;28;20434;-91
2023/07/06 03:20:13;;;;;;;1.48;1.00;;;15.20;81.30;;;;;;5005827;28;20037;-91
2023/07/06 03:22:40;;;;;;;2.35;1.30;;;15.20;81.40;;;;;;5018353;28;20490;-90
2023/07/06 03:25:09;;;;;;;1.50;1.30;;;15.20;81.50;;;;;;5016984;28;20028;-91
2023/07/06 03:27:36;;;;;;;1.83;1.30;;;15.20;81.50;;;;;;5030605;28;20107;-86
2023/07/06 03:30:07;;;;;;;1.45;1.08;;;15.30;81.60;;;;;;5027999;28;20044;-86
2023/07/06 03:32:37;;;;;;;2.92;1.70;;;15.30;81.60;;;;;;5043492;28;20040;-85
2023/07/06 03:35:08;;;;;;;1.60;1.25;;;15.30;81.70;;;;;;5016987;28;20034;-85
2023/07/06 03:37:33;;;;;;;1.55;0.98;;;15.30;81.80;;;;;;5028603;28;20041;-85
2023/07/06 03:39:59;;;;;;;1.52;1.33;;;15.30;81.80;;;;;;5028191;28;20104;-92
2023/07/06 03:42:30;;;;;;;2.17;1.55;;;15.30;81.80;;;;;;5024391;28;20041;-90
2023/07/06 03:45:05;;;;;;;1.83;1.20;;;15.30;81.90;;;;;;5013761;28;20442;-90
2023/07/06 03:47:33;;;;;;;2.50;1.45;;;15.40;82.00;;;;;;5014012;28;20052;-91
2023/07/06 03:49:59;;;;;;;1.27;0.93;;;15.40;82.00;;;;;;5029583;28;20017;-90
2023/07/06 03:52:27;;;;;;;1.40;1.10;;;15.40;82.00;;;;;;5029778;28;20052;-90
2023/07/06 03:54:53;;;;;;;4.30;1.70;;;15.40;82.00;;;;;;5023930;28;20037;-91
2023/07/06 03:57:30;;;;;;;1.33;0.98;;;15.50;82.00;;;;;;5105338;27;20628;-68
2023/07/06 03:59:56;;;;;;;1.52;1.13;;;15.50;82.00;;;;;;5098609;28;20028;-68
2023/07/06 04:02:22;;;;;;;1.75;1.20;;;15.50;81.90;;;;;;5094037;28;20158;-68
2023/07/06 04:04:48;;;;;;;1.45;1.33;;;15.50;81.90;;;;;;5087245;28;20576;-68
2023/07/06 04:07:14;;;;;;;1.00;0.95;;;15.60;82.00;;;;;;5092128;28;20475;-68
2023/07/06 04:09:41;;;;;;;2.80;1.40;;;15.60;82.00;;;;;;5092897;28;20099;-68
2023/07/06 04:12:07;;;;;;;2.20;1.60;;;15.60;82.00;;;;;;5089884;28;20120;-67
2023/07/06 04:14:34;;;;;;;2.65;1.30;;;15.60;82.00;;;;;;5090233;28;20111;-68
2023/07/06 04:17:00;;;;;;;0.85;0.82;;;15.60;82.00;;;;;;5090674;28;20039;-68
2023/07/06 04:19:25;;;;;;;1.92;1.30;;;15.60;82.10;;;;;;5089353;28;20429;-69
2023/07/06 04:21:52;;;;;;;1.67;0.95;;;15.70;82.10;;;;;;5088701;28;20028;-68
2023/07/06 04:24:18;;;;;;;1.20;1.05;;;15.70;82.00;;;;;;5087421;28;20028;-68
2023/07/06 04:26:47;;;;;;;2.38;1.30;;;15.70;82.10;;;;;;5086095;28;20078;-67
2023/07/06 04:29:14;;;;;;;2.83;1.30;;;15.70;82.10;;;;;;5084806;28;20025;-68
2023/07/06 04:31:40;;;;;;;3.10;1.50;;;15.70;82.10;;;;;;5097323;28;20415;-68
2023/07/06 04:34:06;;;;;;;1.42;1.02;;;15.70;82.20;;;;;;5088656;28;20118;-68
2023/07/06 04:36:32;;;;;;;1.08;0.80;;;15.80;82.20;;;;;;5092463;28;20115;-68
2023/07/06 04:38:59;;;;;;;1.90;1.05;;;15.80;82.10;;;;;;5085705;28;20036;-68
2023/07/06 04:41:25;;;;;;;1.50;1.15;;;15.80;82.20;;;;;;5097123;28;20020;-67
2023/07/06 04:43:52;;;;;;;2.05;1.30;;;15.80;82.20;;;;;;5098956;28;20038;-67
2023/07/06 04:46:18;;;;;;;1.65;0.90;;;15.80;82.10;;;;;;5090845;28;20028;-66
2023/07/06 04:48:44;;;;;;;5.18;1.58;;;15.80;82.10;;;;;;5093757;28;20032;-66
2023/07/06 04:51:11;;;;;;;1.88;1.45;;;15.90;82.20;;;;;;5086800;28;20526;-66
2023/07/06 04:53:38;;;;;;;3.00;0.95;;;15.90;82.30;;;;;;5083091;28;20028;-67
2023/07/06 04:56:05;;;;;;;1.98;1.33;;;15.90;82.20;;;;;;5086412;28;20488;-67
2023/07/06 04:58:31;;;;;;;1.33;1.10;;;15.90;82.30;;;;;;5094618;28;20029;-67
2023/07/06 05:01:04;;;;;;;4.20;1.33;;;15.80;82.30;;;;;;5089663;28;20363;-67
2023/07/06 05:03:30;;;;;;;1.30;0.90;;;15.90;82.40;;;;;;5089170;28;20063;-66
2023/07/06 05:06:01;;;;;;;1.48;0.93;;;15.90;82.40;;;;;;5094968;28;20482;-67
2023/07/06 05:08:27;;;;;;;2.83;1.75;;;15.90;82.30;;;;;;5075382;28;20059;-67
2023/07/06 05:10:53;;;;;;;1.92;1.13;;;15.90;82.30;;;;;;5072676;28;20048;-67
2023/07/06 05:13:22;;;;;;;0.85;0.82;;;15.90;82.20;;;;;;5070218;28;20032;-66
2023/07/06 05:15:49;;;;;;;2.38;1.30;;;16.00;82.20;;;;;;5078927;28;20032;-67
2023/07/06 05:18:16;;;;;;;3.22;1.38;;;16.00;82.30;;;;;;5066392;28;20051;-66
2023/07/06 05:20:42;;;;;;;3.55;1.13;;;16.00;82.30;;;;;;5079789;28;20021;-67
2023/07/06 05:23:08;;;;;;;1.83;1.08;;;16.00;82.40;;;;;;5078510;28;20415;-67
2023/07/06 05:25:35;;;;;;;1.67;1.08;;;16.00;82.40;;;;;;5074410;28;20020;-66
2023/07/06 05:28:01;;;;;;;2.22;1.20;;;16.00;82.30;;;;;;5072169;28;20028;-67
2023/07/06 05:30:27;;;;;;;2.17;1.45;;;16.00;82.30;;;;;;5069103;28;20113;-67
2023/07/06 05:32:53;;;;;;;2.47;1.15;;;16.00;82.20;;;;;;5060480;28;20379;-67
2023/07/06 05:35:19;;;;;;;2.33;1.13;;;16.00;82.20;;;;;;5072356;28;20044;-67
2023/07/06 05:37:44;;;;;;;1.92;1.15;;;16.10;82.20;;;;;;5073635;28;20024;-67
2023/07/06 05:40:11;;;;;;;2.10;1.10;;;16.10;82.30;;;;;;5067809;28;20029;-67
2023/07/06 05:42:37;;;;;;;5.40;2.08;;;16.10;82.30;;;;;;5072095;28;20478;-67
2023/07/06 05:45:03;;;;;;;2.08;1.35;;;16.20;82.30;;;;;;5061108;28;20040;-67
2023/07/06 05:47:28;;;;;;;1.85;1.10;;;16.10;82.20;;;;;;5072293;28;20032;-67
2023/07/06 05:49:54;;;;;;;3.75;1.60;;;16.10;82.30;;;;;;5072169;28;20024;-66
2023/07/06 05:52:20;;;;;;;6.90;1.75;;;16.10;82.30;;;;;;5070147;28;20576;-66
2023/07/06 05:54:46;;;;;;;3.78;1.63;;;16.20;82.20;;;;;;5080094;28;20024;-66
2023/07/06 05:57:16;;;;;;;5.75;2.25;;;16.20;82.20;;;;;;5069203;28;20045;-66
2023/07/06 05:59:42;;;;;;;4.38;1.45;;;16.30;82.10;;;;;;5072708;28;20406;-66
2023/07/06 06:02:12;;;;;;;2.10;1.50;;;16.30;82.00;;;;;;5068031;28;20115;-66
2023/07/06 06:04:39;;;;;;;4.38;1.55;;;16.30;82.00;;;;;;5071547;28;20107;-66
2023/07/06 06:07:06;;;;;;;2.65;1.40;;;16.30;82.00;;;;;;5076320;28;20111;-67
2023/07/06 06:09:35;;;;;;;1.90;1.13;;;16.40;81.90;;;;;;5084867;28;20037;-67
2023/07/06 06:12:04;;;;;;;4.88;2.40;;;16.50;82.00;;;;;;5075129;28;20549;-67
2023/07/06 06:14:31;;;;;;;3.38;2.40;;;16.50;82.00;;;;;;5070807;28;20107;-67
2023/07/06 06:16:57;;;;;;;5.45;2.50;;;16.50;82.00;;;;;;5068069;28;20116;-67
2023/07/06 06:19:23;;;;;;;4.95;2.17;;;16.50;82.10;;;;;;5063991;28;20108;-67
2023/07/06 06:21:49;;;;;;;5.80;2.80;;;16.50;82.10;;;;;;5075268;28;20420;-69
2023/07/06 06:24:15;;;;;;;2.35;1.52;;;16.60;82.20;;;;;;5074651;28;20032;-71
2023/07/06 06:26:42;;;;;;;5.10;2.60;;;16.60;82.10;;;;;;5077451;28;20566;-67
2023/07/06 06:29:09;;;;;;;2.85;1.80;;;16.70;81.90;;;;;;5073450;28;20541;-67
2023/07/06 06:31:36;;;;;;;6.10;3.05;;;16.70;81.80;;;;;;5077837;28;20020;-72
2023/07/06 06:34:03;;;;;;;5.15;2.97;;;16.80;81.90;;;;;;5071689;28;20032;-72
2023/07/06 06:36:28;;;;;;;5.93;2.42;;;16.80;81.80;;;;;;5066469;28;20506;-72
2023/07/06 06:38:55;;;;;;;3.35;1.85;;;16.90;81.80;;;;;;5070272;28;20066;-68
2023/07/06 06:41:21;;;;;;;5.43;2.00;;;16.90;81.70;;;;;;5079956;28;20436;-69
2023/07/06 06:43:47;;;;;;;7.97;2.78;;;17.00;81.90;;;;;;5080300;28;20039;-69
2023/07/06 06:46:14;;;;;;;4.55;2.65;;;17.00;81.80;;;;;;5074440;28;20090;-71
2023/07/06 06:48:40;;;;;;;4.38;2.75;;;17.10;81.90;;;;;;5075190;28;20017;-71
2023/07/06 06:51:08;;;;;;;5.38;2.50;;;17.10;81.80;;;;;;5072361;28;20032;-72
2023/07/06 06:53:34;;;;;;;4.00;2.60;;;17.20;81.70;;;;;;5074659;28;20063;-69
2023/07/06 06:56:00;;;;;;;4.05;2.78;;;17.30;81.50;;;;;;5080470;28;20348;-67
2023/07/06 06:58:25;;;;;;;3.80;2.50;;;17.30;81.50;;;;;;5070107;28;20074;-69
2023/07/06 07:00:58;;;;;;;5.97;2.70;;;17.30;81.40;;;;;;5078956;28;20039;-68
2023/07/06 07:03:27;;;;;;;6.68;3.88;;;17.40;81.40;;;;;;5075413;28;20040;-71
2023/07/06 07:06:12;;;;;;;3.53;2.60;;;17.30;81.10;;;;;;5076982;28;20029;-68
2023/07/06 07:08:41;;;;;;;9.82;3.42;;;17.40;81.30;;;;;;5067636;28;20471;-74
2023/07/06 07:11:07;;;;;;;4.63;3.28;;;17.40;81.60;;;;;;5071416;28;20435;-71
2023/07/06 07:13:35;;;;;;;6.38;3.05;;;17.50;81.50;;;;;;5071036;28;20064;-70
2023/07/06 07:16:02;;;;;;;6.53;4.43;;;17.60;81.40;;;;;;5074548;28;20032;-71
2023/07/06 07:18:27;;;;;;;6.15;3.33;;;17.60;81.20;;;;;;5072588;28;20039;-69
2023/07/06 07:20:54;;;;;;;6.10;3.33;;;17.60;81.00;;;;;;5068751;28;20025;-70
2023/07/06 07:23:24;;;;;;;10.15;3.20;;;17.70;81.00;;;;;;5068011;28;20042;-67
2023/07/06 07:25:51;;;;;;;5.85;4.20;;;17.80;80.90;;;;;;5064376;28;20126;-67
2023/07/06 07:28:17;;;;;;;6.43;3.30;;;17.80;80.70;;;;;;5075842;28;20055;-67
2023/07/06 07:30:59;;;;;;;14.60;3.75;;;17.80;80.80;;;;;;5072333;28;20028;-68
2023/07/06 07:33:27;;;;;;;4.17;3.37;;;17.90;80.70;;;;;;5074571;28;20536;-67
2023/07/06 07:35:53;;;;;;;6.72;2.97;;;17.90;80.60;;;;;;5083039;28;20029;-67
2023/07/06 07:38:19;;;;;;;7.10;3.40;;;18.10;80.60;;;;;;5073616;28;20051;-67
2023/07/06 07:40:59;;;;;;;6.53;3.08;;;18.20;80.30;;;;;;5073411;28;20017;-67
2023/07/06 07:43:31;;;;;;;4.05;2.75;;;18.30;80.10;;;;;;5068666;28;20033;-67
2023/07/06 07:46:06;;;;;;;4.78;2.92;;;18.30;79.80;;;;;;5075589;28;20028;-67
2023/07/06 07:48:38;;;;;;;7.82;3.75;;;18.40;79.70;;;;;;5074544;28;20499;-67
2023/07/06 07:51:11;;;;;;;4.53;2.58;;;18.40;79.50;;;;;;5077201;28;20082;-67
2023/07/06 07:53:38;;;;;;;4.30;2.75;;;18.30;79.60;;;;;;5076642;28;20123;-67
2023/07/06 07:56:05;;;;;;;7.97;3.33;;;18.40;79.60;;;;;;5080227;28;20525;-67
2023/07/06 07:58:33;;;;;;;7.05;3.85;;;18.40;79.50;;;;;;5080050;28;20478;-67
2023/07/06 08:01:01;;;;;;;7.82;3.63;;;18.40;79.40;;;;;;5064293;28;20038;-68
2023/07/06 08:03:27;;;;;;;6.25;3.55;;;18.40;79.60;;;;;;5074371;28;20035;-67
2023/07/06 08:05:59;;;;;;;4.90;3.33;;;18.50;79.60;;;;;;5068059;28;20028;-67
2023/07/06 08:08:25;;;;;;;5.75;2.92;;;18.60;79.30;;;;;;5069615;28;20041;-67
2023/07/06 08:10:54;;;;;;;4.05;2.92;;;18.60;78.80;;;;;;5066887;28;20155;-67
2023/07/06 08:13:20;;;;;;;7.88;2.63;;;18.70;78.80;;;;;;5066350;28;20028;-67
2023/07/06 08:15:48;;;;;;;10.65;3.47;;;18.80;78.70;;;;;;5072642;28;20041;-67
2023/07/06 08:18:15;;;;;;;3.22;2.33;;;18.70;78.40;;;;;;5061295;28;20031;-67
2023/07/06 08:20:43;;;;;;;6.53;3.45;;;18.80;78.60;;;;;;5075014;28;20036;-67
2023/07/06 08:23:11;;;;;;;8.95;3.80;;;18.80;78.10;;;;;;5064456;28;20028;-67
2023/07/06 08:25:39;;;;;;;8.32;4.22;;;18.90;77.70;;;;;;5067459;28;20503;-66
2023/07/06 08:28:06;;;;;;;6.90;3.67;;;19.00;77.60;;;;;;5076168;28;20438;-67
2023/07/06 08:30:33;;;;;;;5.00;3.33;;;19.10;77.40;;;;;;5073485;28;20028;-67
2023/07/06 08:33:00;;;;;;;4.55;3.15;;;19.20;77.10;;;;;;5077604;28;20032;-66
2023/07/06 08:35:28;;;;;;;6.05;3.53;;;19.30;77.30;;;;;;5071741;28;20479;-67
2023/07/06 08:37:54;;;;;;;7.93;3.53;;;19.30;76.40;;;;;;5064268;28;20017;-67
2023/07/06 08:40:23;;;;;;;4.72;3.15;;;19.30;76.50;;;;;;5073941;28;20057;-66
2023/07/06 08:42:49;;;;;;;9.50;3.53;;;19.30;76.10;;;;;;5068747;28;20032;-66
2023/07/06 08:45:21;;;;;;;4.15;2.90;;;19.40;76.10;;;;;;5080557;28;20036;-67
2023/07/06 08:47:48;;;;;;;5.97;2.80;;;19.50;76.10;;;;;;5078698;28;20013;-67
2023/07/06 08:50:20;;;;;;;5.82;3.30;;;19.50;76.00;;;;;;5079318;28;20116;-66
2023/07/06 08:52:46;;;;;;;4.40;3.60;;;19.60;75.60;;;;;;5066277;28;20072;-67
2023/07/06 08:55:15;;;;;;;4.93;3.00;;;19.60;75.50;;;;;;5080864;28;20474;-66
2023/07/06 08:57:41;;;;;;;4.55;2.80;;;19.50;75.00;;;;;;5078612;28;20028;-71
2023/07/06 09:00:33;;;;;;;4.97;3.22;;;19.50;75.20;;;;;;5074486;28;20135;-72
2023/07/06 09:03:06;;;;;;;5.20;3.67;;;19.70;75.20;;;;;;5069490;28;20094;-71
2023/07/06 09:05:35;;;;;;;4.47;2.97;;;19.90;74.50;;;;;;5073161;28;20032;-71
2023/07/06 09:08:00;;;;;;;5.68;3.20;;;19.90;74.30;;;;;;5077524;28;20036;-72
2023/07/06 09:10:31;;;;;;;6.85;3.40;;;20.00;74.40;;;;;;5072841;28;20040;-70
2023/07/06 09:13:11;;;;;;;5.43;2.53;;;20.10;74.00;;;;;;5072676;28;20066;-71
2023/07/06 09:15:38;;;;;;;4.70;2.60;;;20.20;73.90;;;;;;5075215;28;20059;-70
2023/07/06 09:18:03;;;;;;;4.22;2.50;;;20.20;73.90;;;;;;5065573;28;20037;-70
2023/07/06 09:20:31;;;;;;;5.95;3.45;;;20.30;73.60;;;;;;5068175;28;20067;-70
2023/07/06 09:22:57;;;;;;;4.80;2.47;;;20.20;73.70;;;;;;5077836;28;20071;-71
2023/07/06 09:25:37;;;;;;;4.50;2.53;;;20.10;73.10;;;;;;5073258;28;20867;-71
2023/07/06 09:28:07;;;;;;;4.97;2.58;;;20.00;73.30;;;;;;5071389;28;20023;-71
2023/07/06 09:30:37;;;;;;;5.70;3.55;;;20.10;73.20;;;;;;5074487;28;20035;-71
2023/07/06 09:33:06;;;;;;;5.13;2.90;;;20.30;72.30;;;;;;5080889;28;20024;-71
2023/07/06 09:35:36;;;;;;;3.78;2.70;;;20.40;72.10;;;;;;5074607;28;20465;-71
2023/07/06 09:38:06;;;;;;;7.38;2.88;;;20.60;71.80;;;;;;5074794;28;20359;-70
2023/07/06 09:40:32;;;;;;;3.28;2.55;;;20.60;71.10;;;;;;5076504;28;20036;-71
2023/07/06 09:42:57;;;;;;;4.85;3.25;;;20.80;71.20;;;;;;5077798;28;20572;-70
2023/07/06 09:45:29;;;;;;;4.60;2.95;;;20.90;70.90;;;;;;5073272;28;20464;-71
2023/07/06 09:48:05;;;;;;;3.58;2.10;;;20.90;70.70;;;;;;5071802;28;20020;-71
2023/07/06 09:50:38;;;;;;;3.10;2.40;;;20.90;70.10;;;;;;5079020;28;20027;-71
2023/07/06 09:53:05;;;;;;;3.80;2.38;;;20.80;70.40;;;;;;5070580;28;20430;-72
2023/07/06 09:55:31;;;;;;;4.50;2.28;;;20.80;70.40;;;;;;5072610;28;20134;-66
2023/07/06 09:57:58;;;;;;;3.63;2.42;;;20.70;70.50;;;;;;5076453;28;20031;-66
2023/07/06 10:00:41;;;;;;;2.28;1.95;;;20.70;70.70;;;;;;5074246;28;20074;-70
2023/07/06 10:03:25;;;;;;;4.63;2.42;;;20.90;70.60;;;;;;5075405;28;20039;-66
2023/07/06 10:06:17;;;;;;;4.53;3.00;;;21.10;69.50;;;;;;5076874;28;20349;-66
2023/07/06 10:08:58;;;;;;;3.67;2.40;;;21.10;68.80;;;;;;5082441;28;20028;-66
2023/07/06 10:11:49;;;;;;;4.43;2.40;;;21.20;68.10;;;;;;5077353;28;20028;-67
2023/07/06 10:14:38;;;;;;;2.85;2.35;;;21.30;67.30;;;;;;5076645;28;20040;-71
2023/07/06 10:17:10;;;;;;;2.20;1.63;;;21.30;67.40;;;;;;5068278;28;20032;-66
2023/07/06 10:20:09;;;;;;;3.22;2.03;;;21.20;67.50;;;;;;5067979;28;20391;-70
2023/07/06 10:22:53;;;;;;;5.13;2.90;;;21.20;67.00;;;;;;5074981;28;20047;-66
2023/07/06 10:25:33;;;;;;;2.75;1.92;;;21.20;66.90;;;;;;5070654;28;20103;-71
2023/07/06 10:28:14;;;;;;;3.42;1.77;;;21.40;67.10;;;;;;5074126;28;20029;-66
2023/07/06 10:30:47;;;;;;;2.15;1.55;;;21.50;67.30;;;;;;5070506;28;20428;-71
2023/07/06 10:33:43;;;;;;;2.42;1.38;;;21.80;66.80;;;;;;5077321;28;20055;-71
2023/07/06 10:36:13;;;;;;;3.03;1.70;;;21.90;66.50;;;;;;5072977;28;20393;-66
2023/07/06 10:38:39;;;;;;;2.50;1.75;;;21.80;66.50;;;;;;5073807;28;20043;-66
2023/07/06 10:41:10;;;;;;;2.00;1.50;;;21.80;66.50;;;;;;5075559;28;20060;-71
2023/07/06 10:43:40;;;;;;;4.00;2.13;;;22.00;66.90;;;;;;5075289;28;20026;-70
2023/07/06 10:46:25;;;;;;;5.88;2.45;;;22.20;66.40;;;;;;5067009;28;20067;-71
2023/07/06 10:48:54;;;;;;;2.92;1.90;;;22.50;65.30;;;;;;5096846;28;20565;-71
2023/07/06 10:51:27;;;;;;;2.13;1.70;;;22.70;64.30;;;;;;5053362;28;20329;-71
2023/07/06 10:54:16;;;;;;;3.30;1.92;;;22.90;63.20;;;;;;5081395;28;20028;-66
2023/07/06 10:56:47;;;;;;;2.22;1.73;;;23.10;62.20;;;;;;5081832;28;20052;-66
2023/07/06 10:59:16;;;;;;;5.53;1.77;;;23.30;62.40;;;;;;5082024;28;20511;-66
2023/07/06 11:01:46;;;;;;;2.90;2.15;;;23.40;61.80;;;;;;5085235;28;20154;-66
2023/07/06 11:04:36;;;;;;;6.68;2.28;;;23.50;61.10;;;;;;5079076;28;20020;-70
2023/07/06 11:07:04;;;;;;;4.60;1.98;;;23.60;61.10;;;;;;5072159;28;20028;-70
2023/07/06 11:09:49;;;;;;;2.58;1.20;;;23.80;60.90;;;;;;5075606;28;20058;-66
2023/07/06 11:12:20;;;;;;;1.73;1.50;;;24.00;60.50;;;;;;5081495;28;20079;-66
2023/07/06 11:14:48;;;;;;;1.98;1.88;;;24.00;59.70;;;;;;5077095;28;20094;-66
2023/07/06 11:17:30;;;;;;;4.43;1.77;;;24.00;58.80;;;;;;5079855;28;20502;-66
2023/07/06 11:20:01;;;;;;;1.25;1.15;;;24.00;58.80;;;;;;5075994;28;20042;-65
2023/07/06 11:22:28;;;;;;;2.35;1.55;;;23.90;59.60;;;;;;5078218;28;20027;-70
2023/07/06 11:25:03;;;;;;;2.17;1.23;;;24.10;59.40;;;;;;5073608;28;20035;-70
2023/07/06 11:27:32;;;;;;;3.10;1.30;;;24.30;58.60;;;;;;5073193;28;20081;-70
2023/07/06 11:30:09;;;;;;;0.93;0.90;;;24.50;57.60;;;;;;5071956;28;20040;-70
2023/07/06 11:32:40;;;;;;;1.90;1.38;;;24.50;58.10;;;;;;5068084;28;20020;-69
2023/07/06 11:35:24;;;;;;;1.95;1.45;;;24.50;57.10;;;;;;5081312;28;20475;-70
2023/07/06 11:37:57;;;;;;;2.67;1.90;;;24.60;56.80;;;;;;5077609;28;20383;-69
2023/07/06 11:40:47;;;;;;;1.25;1.10;;;24.80;57.10;;;;;;5072958;28;20073;-69
2023/07/06 11:43:40;;;;;;;1.15;1.05;;;25.00;56.10;;;;;;5072979;28;20054;-69
2023/07/06 11:46:42;;;;;;;2.38;1.45;;;25.00;56.80;;;;;;5073511;28;20028;-64
2023/07/06 11:49:09;;;;;;;2.58;1.27;;;24.90;56.10;;;;;;5077003;28;20105;-64
2023/07/06 11:51:39;;;;;;;1.25;0.98;;;24.70;56.30;;;;;;5074371;28;20510;-65
2023/07/06 11:54:07;;;;;;;1.70;1.60;;;24.50;55.90;;;;;;5075270;28;20033;-65
2023/07/06 11:57:23;;;;;;;7.40;1.50;;;24.40;55.30;;;;;;5074246;28;20041;-64
2023/07/06 11:59:37;;;;;;;3.60;1.40;;;24.50;55.00;;;;;;5076959;28;20043;-65
2023/07/06 12:02:17;;;;;;;2.47;1.10;;;24.70;55.50;;;;;;5075274;28;20052;-68
2023/07/06 12:04:46;;;;;;;2.13;1.70;;;24.60;55.00;;;;;;5071417;28;20032;-68
2023/07/06 12:07:22;;;;;;;1.52;1.30;;;24.40;55.50;;;;;;5073932;28;20059;-69
2023/07/06 12:09:48;;;;;;;1.92;1.30;;;24.40;56.10;;;;;;5065400;28;20029;-69
2023/07/06 12:12:17;;;;;;;1.38;1.13;;;24.70;54.90;;;;;;5073497;28;20029;-69
2023/07/06 12:14:43;;;;;;;1.33;1.23;;;24.90;55.00;;;;;;5072533;28;20020;-69
2023/07/06 12:17:12;;;;;;;2.80;1.60;;;25.20;54.60;;;;;;5073618;28;20119;-64
2023/07/06 12:19:41;;;;;;;2.75;1.33;;;25.10;54.30;;;;;;5080121;28;20028;-64
2023/07/06 12:22:13;;;;;;;1.42;1.33;;;24.90;54.00;;;;;;5074922;28;20686;-64
2023/07/06 12:24:39;;;;;;;1.60;1.42;;;24.60;53.70;;;;;;5072658;28;20021;-64
2023/07/06 12:27:13;;;;;;;1.30;1.00;;;24.30;54.10;;;;;;5070493;28;20036;-65
2023/07/06 12:29:39;;;;;;;2.25;1.30;;;24.00;55.10;;;;;;5077905;28;20098;-68
2023/07/06 12:32:15;;;;;;;1.45;1.05;;;23.80;55.30;;;;;;5079080;28;20040;-64
2023/07/06 12:34:44;;;;;;;1.20;1.10;;;23.60;56.10;;;;;;5075328;28;20020;-63
2023/07/06 12:37:11;;;;;;;1.77;1.52;;;23.50;56.20;;;;;;5072750;28;20029;-68
2023/07/06 12:39:41;;;;;;;2.13;1.20;;;23.40;56.50;;;;;;5071888;28;20016;-64
2023/07/06 12:42:10;;;;;;;2.78;1.88;;;23.30;57.00;;;;;;5081367;28;20049;-64
2023/07/06 12:44:37;;;;;;;1.60;1.48;;;23.20;57.10;;;;;;5071870;28;21070;-64
2023/07/06 12:47:24;;;;;;;4.65;1.77;;;23.00;57.40;;;;;;5079049;28;20020;-65
2023/07/06 12:49:52;;;;;;;2.30;1.33;;;22.90;57.60;;;;;;5083232;28;20021;-69
2023/07/06 12:52:21;;;;;;;1.60;1.50;;;22.80;57.70;;;;;;5076824;28;20043;-65
2023/07/06 12:54:51;;;;;;;1.52;1.40;;;22.80;58.20;;;;;;5085789;28;20035;-69
2023/07/06 12:57:26;;;;;;;3.60;2.05;;;22.80;58.30;;;;;;5076774;28;20046;-69
2023/07/06 13:00:08;;;;;;;1.83;1.55;;;22.70;58.40;;;;;;5081748;28;20056;-69
2023/07/06 13:02:37;;;;;;;;;;;22.60;59.00;;;;;;5075061;28;20016;-69
2023/07/06 13:05:28;;;;;;;2.72;1.90;;;22.50;59.50;;;;;;5075055;28;19908;-69